TimeEST,TemperatureF,Dew PointF,Humidity,Sea Level PressureIn,VisibilityMPH,Wind Direction,Wind SpeedMPH,Gust SpeedMPH,PrecipitationIn,Events,Conditions,WindDirDegrees,DateUTC
12:21 AM,37.4,33.8,87,30.06,10.0,NNE,5.8,-,0.00,Rain,Light Rain,30,2013-03-06 05:21:00
12:53 AM,37.0,33.1,86,30.05,10.0,NNE,8.1,-,0.00,,Mostly Cloudy,20,2013-03-06 05:53:00
1:02 AM,37.4,33.8,87,30.06,10.0,NE,11.5,-,N/A,,Overcast,40,2013-03-06 06:02:00
1:53 AM,37.9,34.0,86,30.04,10.0,NNE,10.4,-,0.00,,Overcast,30,2013-03-06 06:53:00
2:53 AM,37.9,34.0,86,30.03,10.0,NE,9.2,-,0.01,,Overcast,40,2013-03-06 07:53:00
3:46 AM,37.4,33.8,87,30.05,5.0,NE,8.1,19.6,0.01,Rain,Light Rain,40,2013-03-06 08:46:00
3:53 AM,37.9,35.1,89,30.04,10.0,NE,10.4,17.3,0.01,Rain,Light Rain,50,2013-03-06 08:53:00
4:09 AM,39.2,33.8,81,30.06,10.0,ENE,9.2,19.6,0.00,,Overcast,70,2013-03-06 09:09:00
4:18 AM,39.2,33.8,81,30.06,10.0,ENE,9.2,-,0.00,Rain,Light Rain,60,2013-03-06 09:18:00
4:27 AM,39.2,33.8,81,30.07,10.0,ENE,8.1,-,0.00,Rain,Light Rain,70,2013-03-06 09:27:00
4:53 AM,37.9,34.0,86,30.06,10.0,ENE,6.9,-,0.00,,Overcast,70,2013-03-06 09:53:00
5:53 AM,37.9,34.0,86,30.06,7.0,East,12.7,19.6,0.01,Rain,Light Rain,80,2013-03-06 10:53:00
6:05 AM,37.4,33.8,87,30.07,7.0,East,12.7,19.6,0.01,Rain,Light Rain,80,2013-03-06 11:05:00
6:53 AM,39.0,33.1,79,30.08,8.0,ENE,10.4,20.7,0.01,Rain,Light Rain,70,2013-03-06 11:53:00
7:51 AM,39.2,30.2,70,30.11,10.0,ENE,16.1,24.2,0.00,,Overcast,70,2013-03-06 12:51:00
7:53 AM,39.0,30.9,73,30.11,10.0,ENE,16.1,24.2,0.00,,Overcast,70,2013-03-06 12:53:00
8:31 AM,39.2,30.2,70,30.11,10.0,ENE,12.7,24.2,0.00,,Overcast,70,2013-03-06 13:31:00
8:43 AM,39.2,28.4,65,30.10,10.0,ENE,18.4,28.8,0.00,,Overcast,60,2013-03-06 13:43:00
8:53 AM,39.0,28.9,67,30.10,10.0,ENE,16.1,29.9,0.00,,Overcast,70,2013-03-06 13:53:00
9:50 AM,39.2,30.2,70,30.12,10.0,East,13.8,25.3,0.00,Rain,Light Rain,80,2013-03-06 14:50:00
9:53 AM,39.0,32.0,76,30.11,9.0,ENE,12.7,25.3,0.00,Rain,Light Rain,70,2013-03-06 14:53:00
10:23 AM,39.2,30.2,70,30.11,9.0,ENE,16.1,27.6,0.00,Rain,Light Rain,70,2013-03-06 15:23:00
10:53 AM,39.9,28.0,63,30.10,10.0,East,12.7,25.3,0.00,,Overcast,80,2013-03-06 15:53:00
11:53 AM,39.9,30.0,68,30.09,10.0,ENE,15.0,27.6,N/A,,Overcast,60,2013-03-06 16:53:00
12:27 PM,39.2,28.4,65,30.09,7.0,East,19.6,26.5,N/A,,Overcast,90,2013-03-06 17:27:00
12:53 PM,39.0,33.1,79,30.09,10.0,ENE,12.7,20.7,0.01,,Overcast,60,2013-03-06 17:53:00
1:16 PM,37.4,30.2,75,30.09,2.5,East,15.0,28.8,0.02,Rain,Rain,80,2013-03-06 18:16:00
1:28 PM,39.2,32.0,75,30.09,10.0,ENE,15.0,26.5,0.02,Rain,Light Rain,70,2013-03-06 18:28:00
1:53 PM,39.0,30.0,70,30.07,10.0,ENE,17.3,27.6,0.02,,Overcast,60,2013-03-06 18:53:00
2:07 PM,37.4,30.2,75,30.09,2.5,East,16.1,29.9,0.00,Rain,Rain,80,2013-03-06 19:07:00
2:17 PM,37.4,30.2,75,30.08,10.0,East,15.0,24.2,0.00,Rain,Light Rain,80,2013-03-06 19:17:00
2:30 PM,39.2,30.2,70,30.08,10.0,ENE,16.1,32.2,0.00,,Overcast,70,2013-03-06 19:30:00
2:53 PM,37.9,30.9,76,30.08,10.0,ENE,13.8,25.3,0.00,,Overcast,60,2013-03-06 19:53:00
3:53 PM,37.0,30.0,76,30.08,5.0,East,16.1,25.3,0.00,Rain,Light Rain,80,2013-03-06 20:53:00
4:14 PM,37.4,30.2,75,30.09,9.0,ENE,11.5,23.0,0.01,,Overcast,70,2013-03-06 21:14:00
4:53 PM,37.0,28.9,73,30.08,8.0,NE,18.4,29.9,0.01,Rain,Light Rain,50,2013-03-06 21:53:00
5:17 PM,35.6,30.2,81,30.10,3.0,ENE,13.8,23.0,0.00,Snow,Light Snow,60,2013-03-06 22:17:00
5:53 PM,36.0,30.9,82,30.10,7.0,NE,17.3,26.5,0.02,Rain,Light Rain,50,2013-03-06 22:53:00
6:42 PM,35.6,30.2,81,30.10,10.0,ENE,13.8,21.9,0.00,,Overcast,70,2013-03-06 23:42:00
6:53 PM,36.0,30.9,82,30.09,10.0,NE,15.0,25.3,0.00,,Overcast,50,2013-03-06 23:53:00
7:23 PM,35.6,30.2,81,30.09,9.0,ENE,17.3,29.9,0.00,,Overcast,70,2013-03-07 00:23:00
7:53 PM,37.0,28.0,70,30.09,10.0,NE,20.7,29.9,0.00,Rain,Light Rain,50,2013-03-07 00:53:00
8:53 PM,36.0,28.0,73,30.09,7.0,ENE,17.3,33.4,0.00,Snow,Light Snow,70,2013-03-07 01:53:00
9:53 PM,37.0,28.0,70,30.07,8.0,NE,18.4,34.5,0.00,Rain,Light Rain,40,2013-03-07 02:53:00
10:53 PM,36.0,28.9,76,30.06,6.0,NE,17.3,29.9,0.00,Snow,Light Snow,50,2013-03-07 03:53:00
11:53 PM,37.0,26.1,65,30.06,10.0,NE,21.9,29.9,0.00,,Overcast,50,2013-03-07 04:53:00